createdAt,value
2016-02-20T00:00:41.605Z,1014.79
2016-02-20T00:01:41.576Z,1014.76
2016-02-20T00:02:41.579Z,1014.72
2016-02-20T00:03:41.550Z,1014.72
2016-02-20T00:04:41.522Z,1014.67
2016-02-20T00:05:41.513Z,1014.66
2016-02-20T00:06:41.494Z,1014.64
2016-02-20T00:07:41.481Z,1014.63
2016-02-20T00:08:41.452Z,1014.65
2016-02-20T00:09:41.439Z,1014.65
2016-02-20T00:10:41.427Z,1014.7
2016-02-20T00:11:41.414Z,1014.64
2016-02-20T00:12:41.385Z,1014.57
2016-02-20T00:13:41.372Z,1014.67
2016-02-20T00:14:41.360Z,1014.65
2016-02-20T00:15:41.330Z,1014.64
2016-02-20T00:16:41.318Z,1014.59
2016-02-20T00:17:41.305Z,1014.6
2016-02-20T00:18:41.292Z,1014.57
2016-02-20T00:19:41.279Z,1014.61
2016-02-20T00:20:41.251Z,1014.54
2016-02-20T00:21:41.238Z,1014.5
2016-02-20T00:22:41.210Z,1014.51
2016-02-20T00:23:41.196Z,1014.45
2016-02-20T00:24:41.183Z,1014.43
2016-02-20T00:25:41.170Z,1014.32
2016-02-20T00:26:41.142Z,1014.32
2016-02-20T00:27:41.128Z,1014.25
2016-02-20T00:28:41.116Z,1014.24
2016-02-20T00:29:41.087Z,1014.2
2016-02-20T00:30:41.079Z,1014.2
2016-02-20T00:31:41.067Z,1014.13
2016-02-20T00:32:41.038Z,1014.11
2016-02-20T00:33:41.025Z,1014.14
2016-02-20T00:34:41.012Z,1014.1
2016-02-20T00:35:40.984Z,1014.15
2016-02-20T00:36:40.970Z,1014.16
2016-02-20T00:37:40.957Z,1014.06
2016-02-20T00:38:40.944Z,1014.04
2016-02-20T00:39:40.916Z,1014.05
2016-02-20T00:40:40.903Z,1014.01
2016-02-20T00:41:40.890Z,1014.01
2016-02-20T00:42:40.877Z,1013.93
2016-02-20T00:43:40.849Z,1013.87
2016-02-20T00:44:40.836Z,1013.78
2016-02-20T00:45:40.822Z,1013.8
2016-02-20T00:46:40.794Z,1013.78
2016-02-20T00:47:40.796Z,1013.76
2016-02-20T00:48:40.769Z,1013.75
2016-02-20T00:49:40.740Z,1013.73
2016-02-20T00:50:40.726Z,1013.75
2016-02-20T00:51:40.713Z,1013.76
2016-02-20T00:52:40.701Z,1013.77
2016-02-20T00:53:40.672Z,1013.78
2016-02-20T00:54:40.659Z,1013.78
2016-02-20T00:55:40.647Z,1013.75
2016-02-20T00:56:40.618Z,1013.79
2016-02-20T00:57:40.605Z,1013.68
2016-02-20T00:58:40.592Z,1013.69
2016-02-20T00:59:40.564Z,1013.74
2016-02-20T01:00:40.550Z,1013.62
2016-02-20T01:01:40.537Z,1013.65
2016-02-20T01:02:40.525Z,1013.59
2016-02-20T01:03:40.527Z,1013.65
2016-02-20T01:04:40.484Z,1013.58
2016-02-20T01:05:40.455Z,1013.62
2016-02-20T01:06:40.441Z,1013.57
2016-02-20T01:07:40.429Z,1013.51
2016-02-20T01:08:40.400Z,1013.49
2016-02-20T01:09:40.386Z,1013.48
2016-02-20T01:10:40.375Z,1013.46
2016-02-20T01:11:40.361Z,1013.49
2016-02-20T01:12:40.333Z,1013.44
2016-02-20T01:13:40.320Z,1013.38
2016-02-20T01:14:40.308Z,1013.31
2016-02-20T01:15:40.278Z,1013.22
2016-02-20T01:16:40.265Z,1013.17
2016-02-20T01:17:40.252Z,1013.09
2016-02-20T01:18:40.225Z,1013.11
2016-02-20T01:19:40.211Z,1013.06
2016-02-20T01:20:40.198Z,1013.01
2016-02-20T01:21:40.174Z,1012.97
2016-02-20T01:22:40.162Z,1013
2016-02-20T01:23:40.133Z,1013.01
2016-02-20T01:24:40.121Z,1013.01
2016-02-20T01:25:40.107Z,1012.99
2016-02-20T01:26:40.078Z,1013.05
2016-02-20T01:27:40.065Z,1012.99
2016-02-20T01:28:40.053Z,1012.91
2016-02-20T01:29:40.040Z,1012.85
2016-02-20T01:30:40.011Z,1012.87
2016-02-20T01:31:39.998Z,1012.8
2016-02-20T01:32:39.986Z,1012.78
2016-02-20T01:33:39.956Z,1012.73
2016-02-20T01:34:39.944Z,1012.75
2016-02-20T01:35:39.930Z,1012.81
2016-02-20T01:36:39.902Z,1012.77
2016-02-20T01:37:39.889Z,1012.72
2016-02-20T01:38:39.877Z,1012.76
2016-02-20T01:39:39.880Z,1012.73
2016-02-20T01:40:39.836Z,1012.72
2016-02-20T01:41:39.822Z,1012.68
2016-02-20T01:42:39.809Z,1012.67
2016-02-20T01:43:39.780Z,1012.74
2016-02-20T01:44:39.768Z,1012.82
2016-02-20T01:45:39.754Z,1012.8
2016-02-20T01:46:39.741Z,1012.83
2016-02-20T01:47:39.729Z,1012.79
2016-02-20T01:48:39.700Z,1012.83
2016-02-20T01:49:39.687Z,1012.87
2016-02-20T01:50:39.659Z,1012.89
2016-02-20T01:51:39.646Z,1012.86
2016-02-20T01:52:39.632Z,1012.91
2016-02-20T01:53:39.620Z,1012.9
2016-02-20T01:54:39.591Z,1012.9
2016-02-20T01:55:39.579Z,1012.93
2016-02-20T01:56:39.565Z,1012.95
2016-02-20T01:57:39.553Z,1013.04
2016-02-20T01:58:39.524Z,1012.96
2016-02-20T01:59:39.511Z,1012.98
2016-02-20T02:00:39.498Z,1012.88
2016-02-20T02:01:39.484Z,1012.85
2016-02-20T02:02:39.457Z,1012.85
2016-02-20T02:03:39.444Z,1012.76
2016-02-20T02:04:39.428Z,1012.81
2016-02-20T02:05:39.415Z,1012.9
2016-02-20T02:06:39.387Z,1012.84
2016-02-20T02:07:39.373Z,1012.79
2016-02-20T02:08:39.360Z,1012.81
2016-02-20T02:09:39.332Z,1012.76
2016-02-20T02:10:39.319Z,1012.72
2016-02-20T02:11:39.306Z,1012.71
2016-02-20T02:12:39.278Z,1012.66
2016-02-20T02:13:39.264Z,1012.68
2016-02-20T02:14:39.252Z,1012.65
2016-02-20T02:15:39.239Z,1012.62
2016-02-20T02:16:39.210Z,1012.58
2016-02-20T02:17:39.197Z,1012.61
2016-02-20T02:18:39.184Z,1012.64
2016-02-20T02:19:39.155Z,1012.6
2016-02-20T02:20:39.158Z,1012.65
2016-02-20T02:21:39.130Z,1012.66
2016-02-20T02:22:39.117Z,1012.61
2016-02-20T02:23:39.088Z,1012.59
2016-02-20T02:24:39.076Z,1012.5
2016-02-20T02:25:39.046Z,1012.48
2016-02-20T02:26:39.034Z,1012.52
2016-02-20T02:27:39.021Z,1012.36
2016-02-20T02:28:38.992Z,1012.32
2016-02-20T02:29:38.979Z,1012.31
2016-02-20T02:30:38.967Z,1012.34
2016-02-20T02:31:38.937Z,1012.24
2016-02-20T02:32:38.925Z,1012.24
2016-02-20T02:33:38.912Z,1012.18
2016-02-20T02:34:38.884Z,1012.15
2016-02-20T02:35:38.870Z,1012.19
2016-02-20T02:36:38.858Z,1012.12
2016-02-20T02:37:38.844Z,1012.11
2016-02-20T02:38:38.816Z,1012.1
2016-02-20T02:39:38.803Z,1012.17
2016-02-20T02:40:38.790Z,1012.12
2016-02-20T02:41:38.761Z,1012.08
2016-02-20T02:42:38.749Z,1012.04
2016-02-20T02:43:38.720Z,1012.04
2016-02-20T02:44:38.708Z,1012
2016-02-20T02:45:38.694Z,1011.92
2016-02-20T02:46:38.682Z,1011.9
2016-02-20T02:47:38.652Z,1011.9
2016-02-20T02:48:38.640Z,1011.82
2016-02-20T02:49:38.627Z,1011.9
2016-02-20T02:50:38.598Z,1011.8
2016-02-20T02:51:38.585Z,1011.8
2016-02-20T02:52:38.573Z,1011.84
2016-02-20T02:53:38.559Z,1011.76
2016-02-20T02:54:38.532Z,1011.75
2016-02-20T02:55:38.518Z,1011.76
2016-02-20T02:56:38.505Z,1011.77
2016-02-20T02:57:38.477Z,1011.75
2016-02-20T02:58:38.464Z,1011.73
2016-02-20T02:59:38.451Z,1011.81
2016-02-20T03:00:38.438Z,1011.79
2016-02-20T03:01:38.426Z,1011.75
2016-02-20T03:02:38.396Z,1011.67
2016-02-20T03:03:38.383Z,1011.65
2016-02-20T03:04:38.355Z,1011.64
2016-02-20T03:05:38.342Z,1011.6
2016-02-20T03:06:38.328Z,1011.61
2016-02-20T03:07:38.317Z,1011.61
2016-02-20T03:08:38.287Z,1011.52
2016-02-20T03:09:38.275Z,1011.42
2016-02-20T03:10:38.261Z,1011.53
2016-02-20T03:11:38.233Z,1011.42
2016-02-20T03:12:38.220Z,1011.39
2016-02-20T03:13:38.207Z,1011.33
2016-02-20T03:14:38.195Z,1011.32
2016-02-20T03:15:38.165Z,1011.26
2016-02-20T03:16:38.153Z,1011.19
2016-02-20T03:17:38.140Z,1011.13
2016-02-20T03:18:38.111Z,1011.12
2016-02-20T03:19:38.098Z,1011.19
2016-02-20T03:20:38.085Z,1011.03
2016-02-20T03:21:38.072Z,1011.01
2016-02-20T03:22:38.043Z,1010.99
2016-02-20T03:23:38.031Z,1010.96
2016-02-20T03:24:38.019Z,1010.97
2016-02-20T03:25:37.990Z,1010.98
2016-02-20T03:26:37.977Z,1010.93
2016-02-20T03:27:37.964Z,1010.83
2016-02-20T03:28:37.951Z,1010.8
2016-02-20T03:29:37.922Z,1010.66
2016-02-20T03:30:37.910Z,1010.62
2016-02-20T03:31:37.895Z,1010.56
2016-02-20T03:32:37.867Z,1010.57
2016-02-20T03:33:37.854Z,1010.54
2016-02-20T03:34:37.842Z,1010.51
2016-02-20T03:35:37.829Z,1010.45
2016-02-20T03:36:37.801Z,1010.34
2016-02-20T03:37:37.787Z,1010.3
2016-02-20T03:38:37.775Z,1010.31
2016-02-20T03:39:37.745Z,1010.33
2016-02-20T03:40:37.734Z,1010.25
2016-02-20T03:41:37.720Z,1010.35
2016-02-20T03:42:37.692Z,1010.26
2016-02-20T03:43:37.678Z,1010.26
2016-02-20T03:44:37.666Z,1010.22
2016-02-20T03:45:37.653Z,1010.17
2016-02-20T03:46:37.624Z,1010.19
2016-02-20T03:47:37.611Z,1010.16
2016-02-20T03:48:37.583Z,1010.17
2016-02-20T03:49:37.570Z,1010.18
2016-02-20T03:50:37.557Z,1010.15
2016-02-20T03:51:37.527Z,1010.16
2016-02-20T03:52:37.516Z,1010.08
2016-02-20T03:53:37.502Z,1010.09
2016-02-20T03:54:37.474Z,1010.07
2016-02-20T03:55:37.461Z,1010.06
2016-02-20T03:56:37.448Z,1010.04
2016-02-20T03:57:37.419Z,1010.04
2016-02-20T03:58:37.406Z,1009.98
2016-02-20T03:59:37.393Z,1009.98
2016-02-20T04:00:37.365Z,1010.01
2016-02-20T04:01:37.352Z,1010.03
2016-02-20T04:02:37.340Z,1010.01
2016-02-20T04:03:37.310Z,1010.01
2016-02-20T04:04:37.313Z,1010.04
2016-02-20T04:05:37.284Z,1010.05
2016-02-20T04:06:37.272Z,1010
2016-02-20T04:07:37.243Z,1009.97
2016-02-20T04:08:37.231Z,1009.96
2016-02-20T04:09:37.218Z,1009.95
2016-02-20T04:10:37.189Z,1009.9
2016-02-20T04:11:37.176Z,1009.87
2016-02-20T04:12:37.163Z,1009.82
2016-02-20T04:13:37.134Z,1009.82
2016-02-20T04:14:37.122Z,1009.77
2016-02-20T04:15:37.108Z,1009.77
2016-02-20T04:16:37.095Z,1009.75
2016-02-20T04:17:37.067Z,1009.76
2016-02-20T04:18:37.055Z,1009.75
2016-02-20T04:19:37.041Z,1009.78
2016-02-20T04:20:37.028Z,1009.8
2016-02-20T04:21:37.000Z,1009.86
2016-02-20T04:22:36.986Z,1009.8
2016-02-20T04:23:36.974Z,1009.75
2016-02-20T04:24:36.946Z,1009.77
2016-02-20T04:25:36.932Z,1009.77
2016-02-20T04:26:36.919Z,1009.81
2016-02-20T04:27:36.890Z,1009.74
2016-02-20T04:28:36.878Z,1009.77
2016-02-20T04:29:36.865Z,1009.75
2016-02-20T04:30:36.852Z,1009.76
2016-02-20T04:31:36.823Z,1009.76
2016-02-20T04:32:36.810Z,1009.76
2016-02-20T04:33:36.798Z,1009.72
2016-02-20T04:34:36.785Z,1009.75
2016-02-20T04:35:36.756Z,1009.73
2016-02-20T04:36:36.743Z,1009.69
2016-02-20T04:37:36.730Z,1009.75
2016-02-20T04:38:36.702Z,1009.7
2016-02-20T04:39:36.689Z,1009.74
2016-02-20T04:40:36.676Z,1009.72
2016-02-20T04:41:36.663Z,1009.73
2016-02-20T04:42:36.634Z,1009.7
2016-02-20T04:43:36.622Z,1009.69
2016-02-20T04:44:36.609Z,1009.61
2016-02-20T04:45:36.581Z,1009.62
2016-02-20T04:46:36.567Z,1009.6
2016-02-20T04:47:36.553Z,1009.55
2016-02-20T04:48:36.542Z,1009.64
2016-02-20T04:49:36.513Z,1009.61
2016-02-20T04:50:36.500Z,1009.55
2016-02-20T04:51:36.487Z,1009.62
2016-02-20T04:52:36.458Z,1009.55
2016-02-20T04:53:36.445Z,1009.5
2016-02-20T04:54:36.432Z,1009.55
2016-02-20T04:55:36.419Z,1009.55
2016-02-20T04:56:36.391Z,1009.57
2016-02-20T04:57:36.378Z,1009.55
2016-02-20T04:58:36.349Z,1009.5
2016-02-20T04:59:36.336Z,1009.49
2016-02-20T05:00:36.324Z,1009.51
2016-02-20T05:01:36.311Z,1009.44
2016-02-20T05:02:36.282Z,1009.44
2016-02-20T05:03:36.269Z,1009.44
2016-02-20T05:04:36.257Z,1009.46
2016-02-20T05:05:36.227Z,1009.45
2016-02-20T05:06:36.215Z,1009.41
2016-02-20T05:07:36.201Z,1009.4
2016-02-20T05:08:36.173Z,1009.34
2016-02-20T05:09:36.159Z,1009.33
2016-02-20T05:10:36.147Z,1009.32
2016-02-20T05:11:36.119Z,1009.42
2016-02-20T05:12:36.106Z,1009.41
2016-02-20T05:13:36.092Z,1009.47
2016-02-20T05:14:36.065Z,1009.57
2016-02-20T05:15:36.051Z,1009.46
2016-02-20T05:16:36.039Z,1009.47
2016-02-20T05:17:36.009Z,1009.38
2016-02-20T05:18:35.997Z,1009.31
2016-02-20T05:19:35.984Z,1009.28
2016-02-20T05:20:35.955Z,1009.26
2016-02-20T05:21:35.943Z,1009.21
2016-02-20T05:22:35.930Z,1009.15
2016-02-20T05:23:35.900Z,1009.2
2016-02-20T05:24:35.889Z,1009.24
2016-02-20T05:25:35.875Z,1009.15
2016-02-20T05:26:35.863Z,1009.23
2016-02-20T05:27:35.833Z,1009.17
2016-02-20T05:28:35.821Z,1009.14
2016-02-20T05:29:35.808Z,1009.12
2016-02-20T05:30:35.779Z,1009.11
2016-02-20T05:31:35.766Z,1009.08
2016-02-20T05:32:35.754Z,1009.1
2016-02-20T05:33:35.740Z,1009.22
2016-02-20T05:34:35.727Z,1009.13
2016-02-20T05:35:35.699Z,1009.17
2016-02-20T05:36:35.685Z,1009.15
2016-02-20T05:37:35.657Z,1009.2
2016-02-20T05:38:35.645Z,1009.18
2016-02-20T05:39:35.632Z,1009.23
2016-02-20T05:40:35.618Z,1009.22
2016-02-20T05:41:35.590Z,1009.27
2016-02-20T05:42:35.577Z,1009.22
2016-02-20T05:43:35.564Z,1009.12
2016-02-20T05:44:35.536Z,1009.17
2016-02-20T05:45:35.523Z,1009.22
2016-02-20T05:46:35.509Z,1009.23
2016-02-20T05:47:35.497Z,1009.16
2016-02-20T05:48:35.467Z,1009.04
2016-02-20T05:49:35.456Z,1009.04
2016-02-20T05:50:35.442Z,1009.01
2016-02-20T05:51:35.414Z,1008.97
2016-02-20T05:52:35.401Z,1009.04
2016-02-20T05:53:35.388Z,1009.06
2016-02-20T05:54:35.359Z,1009.15
2016-02-20T05:55:35.566Z,1009.13
2016-02-20T05:56:35.334Z,1009.19
2016-02-20T05:57:35.321Z,1009.16
2016-02-20T05:58:35.291Z,1009.1
2016-02-20T05:59:35.279Z,1009.15
2016-02-20T06:00:35.266Z,1009.17
2016-02-20T06:01:35.237Z,1009.19
2016-02-20T06:02:35.225Z,1009.16
2016-02-20T06:03:35.696Z,1009.1
2016-02-20T06:04:35.199Z,1009.09
2016-02-20T06:05:35.170Z,1009.01
2016-02-20T06:06:35.157Z,1008.96
2016-02-20T06:07:35.144Z,1008.93
2016-02-20T06:08:35.115Z,1008.89
2016-02-20T06:09:35.103Z,1008.86
2016-02-20T06:10:35.090Z,1008.85
2016-02-20T06:11:35.076Z,1008.8
2016-02-20T06:12:35.049Z,1008.7
2016-02-20T06:13:35.035Z,1008.73
2016-02-20T06:14:35.023Z,1008.59
2016-02-20T06:15:34.994Z,1008.61
2016-02-20T06:16:34.981Z,1008.57
2016-02-20T06:17:34.968Z,1008.65
2016-02-20T06:18:34.939Z,1008.7
2016-02-20T06:19:34.926Z,1008.81
2016-02-20T06:20:34.914Z,1008.8
2016-02-20T06:21:34.885Z,1008.82
2016-02-20T06:22:34.872Z,1008.8
2016-02-20T06:23:34.859Z,1008.76
2016-02-20T06:24:34.831Z,1008.72
2016-02-20T06:25:34.817Z,1008.74
2016-02-20T06:26:34.805Z,1008.77
2016-02-20T06:27:34.777Z,1008.68
2016-02-20T06:28:34.763Z,1008.63
2016-02-20T06:29:34.750Z,1008.67
2016-02-20T06:30:34.722Z,1008.67
2016-02-20T06:31:34.709Z,1008.69
2016-02-20T06:32:34.696Z,1008.58
2016-02-20T06:33:34.668Z,1008.66
2016-02-20T06:34:34.654Z,1008.69
2016-02-20T06:35:34.641Z,1008.64
2016-02-20T06:36:34.612Z,1008.56
2016-02-20T06:37:34.600Z,1008.57
2016-02-20T06:38:34.571Z,1008.62
2016-02-20T06:39:34.559Z,1008.61
2016-02-20T06:40:34.545Z,1008.65
2016-02-20T06:41:34.532Z,1008.64
2016-02-20T06:42:34.504Z,1008.67
2016-02-20T06:43:34.491Z,1008.64
2016-02-20T06:44:34.479Z,1008.62
2016-02-20T06:45:34.450Z,1008.68
2016-02-20T06:46:34.436Z,1008.71
2016-02-20T06:47:34.423Z,1008.74
2016-02-20T06:48:34.411Z,1008.75
2016-02-20T06:49:34.382Z,1008.72
2016-02-20T06:50:34.369Z,1008.74
2016-02-20T06:51:34.356Z,1008.67
2016-02-20T06:52:34.328Z,1008.62
2016-02-20T06:53:34.314Z,1008.6
2016-02-20T06:54:34.303Z,1008.64
2016-02-20T06:55:34.273Z,1008.65
2016-02-20T06:56:34.261Z,1008.64
2016-02-20T06:57:34.247Z,1008.65
2016-02-20T06:58:34.219Z,1008.59
2016-02-20T06:59:34.206Z,1008.49
2016-02-20T07:00:34.193Z,1008.48
2016-02-20T07:01:34.180Z,1008.48
2016-02-20T07:02:34.167Z,1008.46
2016-02-20T07:03:34.138Z,1008.56
2016-02-20T07:04:34.126Z,1008.56
2016-02-20T07:05:34.097Z,1008.57
2016-02-20T07:06:34.084Z,1008.61
2016-02-20T07:07:34.071Z,1008.57
2016-02-20T07:08:34.057Z,1008.63
2016-02-20T07:09:34.030Z,1008.54
2016-02-20T07:10:34.017Z,1008.55
2016-02-20T07:11:34.003Z,1008.5
2016-02-20T07:12:33.991Z,1008.56
2016-02-20T07:13:33.962Z,1008.58
2016-02-20T07:14:33.949Z,1008.59
2016-02-20T07:15:33.937Z,1008.55
2016-02-20T07:16:33.923Z,1008.58
2016-02-20T07:17:33.895Z,1008.59
2016-02-20T07:18:33.881Z,1008.53
2016-02-20T07:19:33.854Z,1008.63
2016-02-20T07:20:33.840Z,1008.51
2016-02-20T07:21:33.827Z,1008.53
2016-02-20T07:22:33.799Z,1008.48
2016-02-20T07:23:33.786Z,1008.51
2016-02-20T07:24:33.773Z,1008.44
2016-02-20T07:25:33.761Z,1008.45
2016-02-20T07:26:33.747Z,1008.41
2016-02-20T07:27:33.719Z,1008.42
2016-02-20T07:28:33.705Z,1008.41
2016-02-20T07:29:33.678Z,1008.46
2016-02-20T07:30:33.664Z,1008.32
2016-02-20T07:31:33.651Z,1008.26
2016-02-20T07:32:33.638Z,1008.27
2016-02-20T07:33:33.610Z,1008.26
2016-02-20T07:34:33.597Z,1008.23
2016-02-20T07:35:33.568Z,1008.24
2016-02-20T07:36:33.556Z,1008.32
2016-02-20T07:37:33.543Z,1008.27
2016-02-20T07:38:33.513Z,1008.26
2016-02-20T07:39:33.501Z,1008.23
2016-02-20T07:40:33.488Z,1008.15
2016-02-20T07:41:33.459Z,1008.17
2016-02-20T07:42:33.446Z,1008.1
2016-02-20T07:43:33.434Z,1008.14
2016-02-20T07:44:33.421Z,1008.19
2016-02-20T07:45:33.392Z,1008.13
2016-02-20T07:46:33.379Z,1008.19
2016-02-20T07:47:33.367Z,1008.12
2016-02-20T07:48:33.337Z,1008.18
2016-02-20T07:49:33.325Z,1008.12
2016-02-20T07:50:33.312Z,1008.17
2016-02-20T07:51:33.283Z,1008.23
2016-02-20T07:52:33.270Z,1008.24
2016-02-20T07:53:33.257Z,1008.17
2016-02-20T07:54:33.229Z,1008.11
2016-02-20T07:55:33.216Z,1008.12
2016-02-20T07:56:33.203Z,1008.1
2016-02-20T07:57:33.175Z,1008.01
2016-02-20T07:58:33.161Z,1007.99
2016-02-20T07:59:33.149Z,1008.11
2016-02-20T08:00:33.119Z,1008.11
2016-02-20T08:01:33.122Z,1008.18
2016-02-20T08:02:33.094Z,1008.2
2016-02-20T08:03:33.065Z,1008.25
2016-02-20T08:04:33.053Z,1008.26
2016-02-20T08:05:33.040Z,1008.36
2016-02-20T08:06:33.011Z,1008.36
2016-02-20T08:07:32.999Z,1008.35
2016-02-20T08:08:32.985Z,1008.4
2016-02-20T08:09:32.956Z,1008.34
2016-02-20T08:10:32.944Z,1008.33
2016-02-20T08:11:32.931Z,1008.29
2016-02-20T08:12:32.902Z,1008.26
2016-02-20T08:13:32.889Z,1008.28
2016-02-20T08:14:32.876Z,1008.27
2016-02-20T08:15:32.863Z,1008.34
2016-02-20T08:16:32.834Z,1008.34
2016-02-20T08:17:32.823Z,1008.27
2016-02-20T08:18:32.809Z,1008.35
2016-02-20T08:19:32.780Z,1008.27
2016-02-20T08:20:32.767Z,1008.34
2016-02-20T08:21:32.754Z,1008.29
2016-02-20T08:22:32.742Z,1008.29
2016-02-20T08:23:32.713Z,1008.24
2016-02-20T08:24:32.700Z,1008.29
2016-02-20T08:25:32.687Z,1008.35
2016-02-20T08:26:32.658Z,1008.37
2016-02-20T08:27:32.646Z,1008.39
2016-02-20T08:28:32.633Z,1008.4
2016-02-20T08:29:32.619Z,1008.37
2016-02-20T08:30:32.591Z,1008.33
2016-02-20T08:31:32.578Z,1008.37
2016-02-20T08:32:32.566Z,1008.32
2016-02-20T08:33:32.552Z,1008.28
2016-02-20T08:34:32.524Z,1008.26
2016-02-20T08:35:32.511Z,1008.28
2016-02-20T08:36:32.498Z,1008.3
2016-02-20T08:37:32.470Z,1008.25
2016-02-20T08:38:32.455Z,1008.33
2016-02-20T08:39:32.431Z,1008.31
2016-02-20T08:40:32.392Z,1008.26
2016-02-20T08:41:32.383Z,1008.28
2016-02-20T08:42:32.343Z,1008.31
2016-02-20T08:43:32.304Z,1008.26
2016-02-20T08:44:32.287Z,1008.3
2016-02-20T08:45:32.270Z,1008.22
2016-02-20T08:46:32.252Z,1008.27
2016-02-20T08:47:32.219Z,1008.21
2016-02-20T08:48:32.203Z,1008.25
2016-02-20T08:49:32.189Z,1008.18
2016-02-20T08:50:32.159Z,1008.13
2016-02-20T08:51:32.144Z,1008.16
2016-02-20T08:52:32.129Z,1008.21
2016-02-20T08:53:32.100Z,1008.14
2016-02-20T08:54:32.087Z,1008.18
2016-02-20T08:55:32.073Z,1008.11
2016-02-20T08:56:32.045Z,1008.12
2016-02-20T08:57:32.031Z,1008.11
2016-02-20T08:58:32.017Z,1008.09
2016-02-20T08:59:31.989Z,1008.06
2016-02-20T09:00:31.976Z,1008.06
2016-02-20T09:01:31.962Z,1008.04
2016-02-20T09:02:31.949Z,1007.98
2016-02-20T09:03:31.920Z,1007.96
2016-02-20T09:04:31.907Z,1007.9
2016-02-20T09:05:31.894Z,1007.92
2016-02-20T09:06:31.866Z,1007.93
2016-02-20T09:07:31.853Z,1007.94
2016-02-20T09:08:31.840Z,1007.92
2016-02-20T09:09:31.811Z,1007.93
2016-02-20T09:10:31.798Z,1008
2016-02-20T09:11:31.770Z,1007.95
2016-02-20T09:12:31.757Z,1008.01
2016-02-20T09:13:31.743Z,1008.02
2016-02-20T09:14:31.731Z,1007.95
2016-02-20T09:15:31.702Z,1007.93
2016-02-20T09:16:31.689Z,1007.97
2016-02-20T09:17:31.676Z,1008
2016-02-20T09:18:31.648Z,1008
2016-02-20T09:19:31.635Z,1007.99
2016-02-20T09:20:31.621Z,1007.96
2016-02-20T09:21:31.609Z,1008
2016-02-20T09:22:31.580Z,1007.93
2016-02-20T09:23:31.567Z,1008
2016-02-20T09:24:31.540Z,1008.04
2016-02-20T09:25:31.526Z,1008.03
2016-02-20T09:26:31.512Z,1008.07
2016-02-20T09:27:31.485Z,1008.06
2016-02-20T09:28:31.471Z,1008.11
2016-02-20T09:29:31.459Z,1008.03
2016-02-20T09:30:31.446Z,1008.06
2016-02-20T09:31:31.417Z,1008.05
2016-02-20T09:32:31.404Z,1008.04
2016-02-20T09:33:31.391Z,1008.03
2016-02-20T09:34:31.378Z,1008.01
2016-02-20T09:35:31.350Z,1007.94
2016-02-20T09:36:31.337Z,1007.94
2016-02-20T09:37:31.308Z,1008.03
2016-02-20T09:38:31.295Z,1007.98
2016-02-20T09:39:31.283Z,1007.99
2016-02-20T09:40:31.253Z,1007.94
2016-02-20T09:41:31.241Z,1008.01
2016-02-20T09:42:31.228Z,1007.97
2016-02-20T09:43:31.215Z,1007.98
2016-02-20T09:44:31.186Z,1008
2016-02-20T09:45:31.174Z,1007.96
2016-02-20T09:46:31.144Z,1007.97
2016-02-20T09:47:31.132Z,1008.03
2016-02-20T09:48:31.119Z,1007.96
2016-02-20T09:49:31.090Z,1008.04
2016-02-20T09:50:31.077Z,1008
2016-02-20T09:51:31.065Z,1008.02
2016-02-20T09:52:31.052Z,1008.01
2016-02-20T09:53:31.023Z,1008.03
2016-02-20T09:54:31.010Z,1008.01
2016-02-20T09:55:30.982Z,1008.04
2016-02-20T09:56:30.968Z,1008.02
2016-02-20T09:57:30.956Z,1007.94
2016-02-20T09:58:30.927Z,1007.95
2016-02-20T09:59:30.914Z,1007.96
2016-02-20T10:00:30.902Z,1007.88
2016-02-20T10:01:30.873Z,1007.92
2016-02-20T10:02:30.860Z,1007.9
2016-02-20T10:03:30.848Z,1007.85
2016-02-20T10:04:30.834Z,1007.86
2016-02-20T10:05:30.806Z,1007.87
2016-02-20T10:06:30.792Z,1007.78
2016-02-20T10:07:30.780Z,1007.8
2016-02-20T10:08:30.750Z,1007.74
2016-02-20T10:09:30.739Z,1007.76
2016-02-20T10:10:30.725Z,1007.75
2016-02-20T10:11:30.697Z,1007.78
2016-02-20T10:12:30.684Z,1007.84
2016-02-20T10:13:30.671Z,1007.87
2016-02-20T10:14:30.642Z,1007.8
2016-02-20T10:15:30.629Z,1007.82
2016-02-20T10:16:30.616Z,1007.82
2016-02-20T10:17:30.603Z,1007.84
2016-02-20T10:18:30.575Z,1007.88
2016-02-20T10:19:30.563Z,1007.9
2016-02-20T10:20:30.549Z,1007.91
2016-02-20T10:21:30.520Z,1007.96
2016-02-20T10:22:30.508Z,1007.97
2016-02-20T10:23:30.479Z,1008.01
2016-02-20T10:24:30.465Z,1008.07
2016-02-20T10:25:30.468Z,1007.92
2016-02-20T10:26:30.440Z,1007.98
2016-02-20T10:27:30.412Z,1007.95
2016-02-20T10:28:30.399Z,1008
2016-02-20T10:29:30.385Z,1008
2016-02-20T10:30:30.357Z,1008.03
2016-02-20T10:31:30.345Z,1008.04
2016-02-20T10:32:30.331Z,1008.02
2016-02-20T10:33:30.318Z,1008.01
2016-02-20T10:34:30.289Z,1007.99
2016-02-20T10:35:30.276Z,1007.95
2016-02-20T10:36:30.248Z,1007.98
2016-02-20T10:37:30.236Z,1008.09
2016-02-20T10:38:30.222Z,1008.07
2016-02-20T10:39:30.194Z,1008.14
2016-02-20T10:40:30.181Z,1008.16
2016-02-20T10:41:30.168Z,1008.22
2016-02-20T10:42:30.139Z,1008.23
2016-02-20T10:43:30.127Z,1008.18
2016-02-20T10:44:30.114Z,1008.19
2016-02-20T10:45:30.085Z,1008.22
2016-02-20T10:46:30.072Z,1008.21
2016-02-20T10:47:30.059Z,1008.23
2016-02-20T10:48:30.046Z,1008.22
2016-02-20T10:49:30.033Z,1008.19
2016-02-20T10:50:30.005Z,1008.22
2016-02-20T10:51:29.991Z,1008.18
2016-02-20T10:52:29.963Z,1008.23
2016-02-20T10:53:29.949Z,1008.14
2016-02-20T10:54:29.937Z,1008.17
2016-02-20T10:55:29.924Z,1008.15
2016-02-20T10:56:29.896Z,1008.2
2016-02-20T10:57:29.883Z,1008.2
2016-02-20T10:58:29.917Z,1008.23
2016-02-20T10:59:29.856Z,1008.23
2016-02-20T11:00:29.828Z,1008.2
2016-02-20T11:01:29.815Z,1008.21
2016-02-20T11:02:29.803Z,1008.21
2016-02-20T11:03:29.837Z,1008.25
2016-02-20T11:04:29.762Z,1008.25
2016-02-20T11:05:29.748Z,1008.17
2016-02-20T11:06:29.735Z,1008.28
2016-02-20T11:07:29.704Z,1008.16
2016-02-20T11:08:29.691Z,1008.18
2016-02-20T11:09:29.678Z,1008.17
2016-02-20T11:10:29.650Z,1008.13
2016-02-20T11:11:29.636Z,1008.03
2016-02-20T11:12:29.624Z,1008.13
2016-02-20T11:13:29.595Z,1008.11
2016-02-20T11:14:29.583Z,1008.12
2016-02-20T11:15:29.570Z,1008.15
2016-02-20T11:16:29.556Z,1008.1
2016-02-20T11:17:29.528Z,1008.04
2016-02-20T11:18:29.515Z,1008.02
2016-02-20T11:19:29.502Z,1008.08
2016-02-20T11:20:29.474Z,1008.08
2016-02-20T11:21:29.461Z,1008.09
2016-02-20T11:22:29.447Z,1008.12
2016-02-20T11:23:29.419Z,1008.1
2016-02-20T11:24:29.406Z,1008.04
2016-02-20T11:25:29.393Z,1008.09
2016-02-20T11:26:29.365Z,1008.05
2016-02-20T11:27:29.352Z,1008.01
2016-02-20T11:28:29.338Z,1008
2016-02-20T11:29:29.310Z,1008.03
2016-02-20T11:30:29.297Z,1008
2016-02-20T11:31:29.285Z,1008.03
2016-02-20T11:32:29.271Z,1008.04
2016-02-20T11:33:29.243Z,1008.01
2016-02-20T11:34:29.230Z,1007.97
2016-02-20T11:35:29.217Z,1008
2016-02-20T11:36:29.187Z,1007.98
2016-02-20T11:37:29.175Z,1008
2016-02-20T11:38:29.162Z,1007.97
2016-02-20T11:39:29.134Z,1007.93
2016-02-20T11:40:29.121Z,1007.93
2016-02-20T11:41:29.109Z,1007.88
2016-02-20T11:42:29.158Z,1007.88
2016-02-20T11:43:29.067Z,1007.82
2016-02-20T11:44:29.054Z,1007.85
2016-02-20T11:45:29.025Z,1007.8
2016-02-20T11:46:29.011Z,1007.79
2016-02-20T11:47:28.999Z,1007.74
2016-02-20T11:48:28.970Z,1007.72
2016-02-20T11:49:28.958Z,1007.75
2016-02-20T11:50:28.992Z,1007.73
2016-02-20T11:51:28.932Z,1007.77
2016-02-20T11:52:28.919Z,1007.72
2016-02-20T11:53:28.891Z,1007.73
2016-02-20T11:54:28.893Z,1007.74
2016-02-20T11:55:28.849Z,1007.71
2016-02-20T11:56:28.835Z,1007.74
2016-02-20T11:57:28.823Z,1007.76
2016-02-20T11:58:28.810Z,1007.8
2016-02-20T11:59:28.781Z,1007.81
2016-02-20T12:00:28.768Z,1007.72
2016-02-20T12:01:28.740Z,1007.84
2016-02-20T12:02:28.727Z,1007.86
2016-02-20T12:03:28.714Z,1007.82
2016-02-20T12:04:28.701Z,1007.92
2016-02-20T12:05:28.673Z,1007.82
2016-02-20T12:06:28.676Z,1007.84
2016-02-20T12:07:28.647Z,1007.83
2016-02-20T12:08:28.618Z,1007.86
2016-02-20T12:09:28.606Z,1007.86